CFC381 KNEW-KEYW
Flight info
| Callsign | CFC381 |
|---|---|
| Flight time | 1h 25m |
| Altitude | 37000 |
| Route | BLVNS Y290 CIGAR MARCI KARTR KRAKN KRAKN1 |
| Aircraft | CL60/M-SADE3FGHIJ3J4J7P2RWXY/HB1D1 |
Departure
| Time | 2026-04-26 10:51 |
|---|---|
| Airport | Lakefront Airport (KNEW) |
Arrival
| Time | 2026-04-26 12:17 |
|---|---|
| Airport | Key West International Airport (KEYW) |
| Time | Latitude | Longitude | Altitude | Speed | Heading |
|---|---|---|---|---|---|
| 2026-04-26 10:08 | 30.03590 | -90.02698 | 9 ft | 0 kts | 229° |
| 2026-04-26 10:23 | 30.03600 | -90.02710 | 9 ft | 7 kts | 24° |
| 2026-04-26 10:23 | 30.03655 | -90.02536 | 10 ft | 32 kts | 91° |
| 2026-04-26 10:24 | 30.03614 | -90.02396 | 11 ft | 7 kts | 147° |
| 2026-04-26 10:24 | 30.03603 | -90.02388 | 11 ft | 0 kts | 149° |
| 2026-04-26 10:24 | 30.03602 | -90.02388 | 11 ft | 1 kts | 166° |
| 2026-04-26 10:24 | 30.03599 | -90.02388 | 11 ft | 0 kts | 195° |
| 2026-04-26 10:37 | 30.03592 | -90.02382 | 10 ft | 7 kts | 99° |
| 2026-04-26 10:37 | 30.03630 | -90.02368 | 11 ft | 6 kts | 358° |
| 2026-04-26 10:37 | 30.03663 | -90.02486 | 11 ft | 28 kts | 272° |
| 2026-04-26 10:37 | 30.03687 | -90.02620 | 8 ft | 15 kts | 341° |
| 2026-04-26 10:38 | 30.03873 | -90.02690 | 8 ft | 35 kts | 351° |
| 2026-04-26 10:38 | 30.04120 | -90.02695 | 8 ft | 36 kts | 360° |
| 2026-04-26 10:38 | 30.04361 | -90.02697 | 8 ft | 37 kts | 360° |
| 2026-04-26 10:38 | 30.04629 | -90.02700 | 8 ft | 38 kts | 359° |
| 2026-04-26 10:39 | 30.04901 | -90.02704 | 8 ft | 29 kts | 359° |
| 2026-04-26 10:39 | 30.05008 | -90.02730 | 8 ft | 7 kts | 280° |
| 2026-04-26 10:39 | 30.05018 | -90.02836 | 8 ft | 13 kts | 320° |
| 2026-04-26 10:39 | 30.05141 | -90.02863 | 8 ft | 21 kts | 350° |
| 2026-04-26 10:40 | 30.05263 | -90.02891 | 8 ft | 8 kts | 329° |
| 2026-04-26 10:40 | 30.05270 | -90.02901 | 8 ft | 0 kts | 288° |
| 2026-04-26 10:50 | 30.05273 | -90.02969 | 8 ft | 16 kts | 254° |
| 2026-04-26 10:50 | 30.05231 | -90.02992 | 8 ft | 12 kts | 177° |
| 2026-04-26 10:51 | 30.05131 | -90.02988 | 8 ft | 15 kts | 181° |
| 2026-04-26 10:51 | 30.04050 | -90.02982 | 107 ft | 174 kts | 180° |
| 2026-04-26 10:51 | 30.02924 | -90.02593 | 1458 ft | 180 kts | 140° |
| 2026-04-26 10:52 | 30.02034 | -90.01793 | 3066 ft | 173 kts | 143° |
| 2026-04-26 10:52 | 30.01026 | -90.01055 | 4292 ft | 188 kts | 151° |
| 2026-04-26 10:52 | 29.99731 | -90.00338 | 5208 ft | 229 kts | 158° |
| 2026-04-26 10:52 | 29.98192 | -89.99680 | 6633 ft | 244 kts | 157° |
| 2026-04-26 10:53 | 29.96905 | -89.98640 | 8004 ft | 252 kts | 135° |
| 2026-04-26 10:53 | 29.95652 | -89.97180 | 9224 ft | 270 kts | 134° |
| 2026-04-26 10:53 | 29.94304 | -89.95571 | 10450 ft | 286 kts | 133° |
| 2026-04-26 10:54 | 29.91506 | -89.92075 | 12976 ft | 309 kts | 134° |
| 2026-04-26 10:54 | 29.90081 | -89.90286 | 14264 ft | 314 kts | 134° |
| 2026-04-26 10:54 | 29.88579 | -89.88399 | 15422 ft | 322 kts | 134° |
| 2026-04-26 10:54 | 29.87026 | -89.86449 | 16489 ft | 332 kts | 134° |
| 2026-04-26 10:55 | 29.85488 | -89.84518 | 17473 ft | 341 kts | 134° |
| 2026-04-26 10:55 | 29.83865 | -89.82480 | 18467 ft | 349 kts | 134° |
| 2026-04-26 10:55 | 29.82213 | -89.80405 | 19424 ft | 355 kts | 133° |
| 2026-04-26 10:55 | 29.81072 | -89.78973 | 19912 ft | 366 kts | 134° |
| 2026-04-26 10:56 | 29.78590 | -89.75864 | 19916 ft | 414 kts | 133° |
| 2026-04-26 10:56 | 29.76561 | -89.73320 | 20055 ft | 441 kts | 133° |
| 2026-04-26 10:56 | 29.74459 | -89.70682 | 20533 ft | 456 kts | 133° |
| 2026-04-26 10:56 | 29.72274 | -89.67944 | 21209 ft | 465 kts | 133° |
| 2026-04-26 10:57 | 29.70031 | -89.65134 | 21974 ft | 471 kts | 133° |
| 2026-04-26 10:57 | 29.67791 | -89.62329 | 22667 ft | 477 kts | 133° |
| 2026-04-26 10:57 | 29.65529 | -89.59499 | 23327 ft | 483 kts | 133° |
| 2026-04-26 10:57 | 29.63233 | -89.56628 | 23998 ft | 488 kts | 133° |
| 2026-04-26 10:58 | 29.60904 | -89.53718 | 24614 ft | 493 kts | 133° |
| 2026-04-26 10:58 | 29.58544 | -89.50773 | 25150 ft | 500 kts | 133° |
| 2026-04-26 10:58 | 29.56233 | -89.47889 | 25718 ft | 504 kts | 133° |
| 2026-04-26 10:58 | 29.53897 | -89.44975 | 26232 ft | 509 kts | 133° |
| 2026-04-26 10:59 | 29.51523 | -89.42018 | 26763 ft | 512 kts | 133° |
| 2026-04-26 10:59 | 29.49053 | -89.38945 | 27281 ft | 516 kts | 133° |
| 2026-04-26 10:59 | 29.46567 | -89.35852 | 27735 ft | 521 kts | 133° |
| 2026-04-26 10:59 | 29.44282 | -89.33009 | 28130 ft | 524 kts | 133° |
| 2026-04-26 11:00 | 29.41756 | -89.29873 | 28521 ft | 528 kts | 133° |
| 2026-04-26 11:00 | 29.39249 | -89.26761 | 28905 ft | 531 kts | 133° |
| 2026-04-26 11:00 | 29.36701 | -89.23602 | 29211 ft | 535 kts | 133° |
| 2026-04-26 11:00 | 29.34121 | -89.20406 | 29490 ft | 539 kts | 133° |
| 2026-04-26 11:01 | 29.31583 | -89.17265 | 29831 ft | 541 kts | 133° |
| 2026-04-26 11:01 | 29.28976 | -89.14041 | 30136 ft | 543 kts | 133° |
| 2026-04-26 11:01 | 29.26382 | -89.10835 | 30416 ft | 545 kts | 133° |
| 2026-04-26 11:01 | 29.24010 | -89.07905 | 30613 ft | 548 kts | 133° |
| 2026-04-26 11:02 | 29.21391 | -89.04675 | 30845 ft | 550 kts | 133° |
| 2026-04-26 11:02 | 29.18727 | -89.01390 | 31040 ft | 553 kts | 133° |
| 2026-04-26 11:02 | 29.16173 | -88.98244 | 31269 ft | 553 kts | 133° |
| 2026-04-26 11:02 | 29.13559 | -88.95027 | 31415 ft | 556 kts | 133° |
| 2026-04-26 11:03 | 29.10981 | -88.91859 | 31562 ft | 558 kts | 133° |
| 2026-04-26 11:03 | 29.08316 | -88.88583 | 31920 ft | 555 kts | 133° |
| 2026-04-26 11:03 | 29.05757 | -88.85438 | 32354 ft | 551 kts | 133° |
| 2026-04-26 11:03 | 29.03168 | -88.82262 | 32677 ft | 551 kts | 134° |
| 2026-04-26 11:04 | 29.00560 | -88.79064 | 32878 ft | 552 kts | 134° |
| 2026-04-26 11:04 | 28.97893 | -88.75796 | 33105 ft | 553 kts | 133° |
| 2026-04-26 11:04 | 28.95234 | -88.72542 | 33215 ft | 556 kts | 134° |
| 2026-04-26 11:04 | 28.92649 | -88.69380 | 33414 ft | 557 kts | 134° |
| 2026-04-26 11:05 | 28.89992 | -88.66132 | 33595 ft | 558 kts | 133° |
| 2026-04-26 11:05 | 28.87344 | -88.62899 | 33766 ft | 558 kts | 134° |
| 2026-04-26 11:05 | 28.84654 | -88.59617 | 34008 ft | 557 kts | 134° |
| 2026-04-26 11:05 | 28.81996 | -88.56376 | 34240 ft | 556 kts | 134° |
| 2026-04-26 11:06 | 28.79336 | -88.53136 | 34423 ft | 557 kts | 133° |
| 2026-04-26 11:06 | 28.77541 | -88.50951 | 34570 ft | 557 kts | 133° |
| 2026-04-26 11:06 | 28.74002 | -88.46645 | 34791 ft | 554 kts | 133° |
| 2026-04-26 11:06 | 28.71351 | -88.43424 | 34870 ft | 554 kts | 134° |
| 2026-04-26 11:07 | 28.66371 | -88.37379 | 34925 ft | 556 kts | 134° |
| 2026-04-26 11:07 | 28.61054 | -88.30933 | 34921 ft | 555 kts | 134° |
| 2026-04-26 11:08 | 28.55817 | -88.24596 | 34925 ft | 554 kts | 134° |
| 2026-04-26 11:08 | 28.50403 | -88.18057 | 34933 ft | 554 kts | 134° |
| 2026-04-26 11:09 | 28.45225 | -88.11811 | 34940 ft | 554 kts | 134° |
| 2026-04-26 11:09 | 28.40450 | -88.05315 | 34936 ft | 554 kts | 124° |
| 2026-04-26 11:10 | 28.36777 | -87.97778 | 34935 ft | 552 kts | 111° |
| 2026-04-26 11:10 | 28.34233 | -87.89533 | 34929 ft | 550 kts | 105° |
| 2026-04-26 11:11 | 28.31916 | -87.81489 | 34937 ft | 551 kts | 105° |
| 2026-04-26 11:11 | 28.29523 | -87.73212 | 34932 ft | 550 kts | 105° |
| 2026-04-26 11:12 | 28.27098 | -87.64848 | 34934 ft | 550 kts | 105° |
| 2026-04-26 11:12 | 28.24722 | -87.56677 | 34931 ft | 549 kts | 105° |
| 2026-04-26 11:13 | 28.22317 | -87.48429 | 34929 ft | 548 kts | 105° |
| 2026-04-26 11:13 | 28.19963 | -87.40383 | 34925 ft | 548 kts | 105° |
| 2026-04-26 11:14 | 28.17570 | -87.32224 | 34933 ft | 547 kts | 106° |
| 2026-04-26 11:14 | 28.15585 | -87.25470 | 34927 ft | 548 kts | 106° |
| 2026-04-26 11:15 | 28.12792 | -87.15993 | 34927 ft | 544 kts | 106° |
| 2026-04-26 11:15 | 28.10372 | -87.07807 | 34928 ft | 541 kts | 106° |
| 2026-04-26 11:16 | 28.07956 | -86.99650 | 34931 ft | 540 kts | 106° |
| 2026-04-26 11:16 | 28.05524 | -86.91463 | 34930 ft | 540 kts | 106° |
| 2026-04-26 11:17 | 28.03124 | -86.83394 | 34928 ft | 540 kts | 106° |
| 2026-04-26 11:17 | 28.00697 | -86.75242 | 34925 ft | 541 kts | 105° |
| 2026-04-26 11:18 | 27.98331 | -86.67057 | 34929 ft | 540 kts | 105° |
| 2026-04-26 11:18 | 27.95969 | -86.58900 | 34929 ft | 539 kts | 105° |
| 2026-04-26 11:19 | 27.93608 | -86.50764 | 34927 ft | 539 kts | 105° |
| 2026-04-26 11:19 | 27.91225 | -86.42573 | 34927 ft | 539 kts | 105° |
| 2026-04-26 11:20 | 27.89346 | -86.36131 | 34928 ft | 538 kts | 105° |
| 2026-04-26 11:20 | 27.86707 | -86.27104 | 34928 ft | 537 kts | 106° |
| 2026-04-26 11:21 | 27.84370 | -86.19134 | 34927 ft | 536 kts | 106° |
| 2026-04-26 11:21 | 27.81984 | -86.11013 | 34927 ft | 536 kts | 106° |
| 2026-04-26 11:22 | 27.79595 | -86.02901 | 34930 ft | 536 kts | 106° |
| 2026-04-26 11:22 | 27.77224 | -85.94868 | 34929 ft | 535 kts | 106° |
| 2026-04-26 11:23 | 27.74859 | -85.86877 | 34925 ft | 535 kts | 106° |
| 2026-04-26 11:23 | 27.72452 | -85.78766 | 34926 ft | 535 kts | 106° |
| 2026-04-26 11:24 | 27.70017 | -85.70974 | 34933 ft | 536 kts | 112° |
| 2026-04-26 11:24 | 27.66760 | -85.63457 | 34927 ft | 537 kts | 115° |
| 2026-04-26 11:25 | 27.63389 | -85.55812 | 34928 ft | 536 kts | 115° |
| 2026-04-26 11:25 | 27.60074 | -85.48304 | 34938 ft | 536 kts | 115° |
| 2026-04-26 11:26 | 27.56698 | -85.40678 | 34943 ft | 538 kts | 115° |
| 2026-04-26 11:26 | 27.53267 | -85.32943 | 34946 ft | 540 kts | 115° |
| 2026-04-26 11:27 | 27.49844 | -85.25238 | 34949 ft | 540 kts | 115° |
| 2026-04-26 11:27 | 27.46412 | -85.17529 | 34948 ft | 537 kts | 115° |
| 2026-04-26 11:28 | 27.43007 | -85.09895 | 34948 ft | 534 kts | 115° |
| 2026-04-26 11:28 | 27.39610 | -85.02291 | 34941 ft | 533 kts | 115° |
| 2026-04-26 11:29 | 27.36227 | -84.94733 | 34933 ft | 532 kts | 115° |
| 2026-04-26 11:29 | 27.32884 | -84.87279 | 34936 ft | 531 kts | 115° |
| 2026-04-26 11:30 | 27.30074 | -84.81026 | 34936 ft | 531 kts | 115° |
| 2026-04-26 11:30 | 27.26175 | -84.72360 | 34930 ft | 531 kts | 115° |
| 2026-04-26 11:31 | 27.22852 | -84.64990 | 34927 ft | 531 kts | 115° |
| 2026-04-26 11:31 | 27.19475 | -84.57514 | 34929 ft | 530 kts | 115° |
| 2026-04-26 11:32 | 27.16058 | -84.49963 | 34929 ft | 529 kts | 115° |
| 2026-04-26 11:32 | 27.12684 | -84.42520 | 34926 ft | 529 kts | 115° |
| 2026-04-26 11:33 | 27.09290 | -84.35046 | 34929 ft | 528 kts | 115° |
| 2026-04-26 11:33 | 27.05995 | -84.27804 | 34931 ft | 528 kts | 116° |
| 2026-04-26 11:34 | 27.02782 | -84.20751 | 34923 ft | 528 kts | 116° |
| 2026-04-26 11:34 | 26.99343 | -84.13217 | 34928 ft | 528 kts | 116° |
| 2026-04-26 11:35 | 26.96072 | -84.06063 | 34928 ft | 527 kts | 116° |
| 2026-04-26 11:35 | 26.93217 | -83.99828 | 34930 ft | 527 kts | 116° |
| 2026-04-26 11:36 | 26.89265 | -83.91216 | 34931 ft | 527 kts | 116° |
| 2026-04-26 11:36 | 26.85842 | -83.83769 | 34929 ft | 528 kts | 115° |
| 2026-04-26 11:37 | 26.82435 | -83.76367 | 34927 ft | 528 kts | 115° |
| 2026-04-26 11:37 | 26.79067 | -83.69066 | 34929 ft | 528 kts | 115° |
| 2026-04-26 11:38 | 26.75641 | -83.61652 | 34929 ft | 528 kts | 115° |
| 2026-04-26 11:38 | 26.72223 | -83.54266 | 34929 ft | 529 kts | 115° |
| 2026-04-26 11:39 | 26.68850 | -83.46991 | 34928 ft | 529 kts | 115° |
| 2026-04-26 11:39 | 26.65409 | -83.39584 | 34929 ft | 529 kts | 115° |
| 2026-04-26 11:40 | 26.62046 | -83.32352 | 34929 ft | 529 kts | 116° |
| 2026-04-26 11:40 | 26.58754 | -83.25288 | 34929 ft | 529 kts | 116° |
| 2026-04-26 11:42 | 26.46072 | -82.98183 | 33741 ft | 476 kts | 116° |
| 2026-04-26 11:43 | 26.44493 | -82.94818 | 32831 ft | 481 kts | 116° |
| 2026-04-26 11:43 | 26.42945 | -82.91522 | 32099 ft | 482 kts | 116° |
| 2026-04-26 11:43 | 26.41425 | -82.88287 | 31517 ft | 480 kts | 116° |
| 2026-04-26 11:43 | 26.39851 | -82.84943 | 30974 ft | 476 kts | 116° |
| 2026-04-26 11:44 | 26.38339 | -82.81731 | 30521 ft | 471 kts | 116° |
| 2026-04-26 11:44 | 26.36794 | -82.78453 | 30038 ft | 468 kts | 116° |
| 2026-04-26 11:44 | 26.35261 | -82.75204 | 29564 ft | 464 kts | 116° |
| 2026-04-26 11:44 | 26.33749 | -82.71999 | 29077 ft | 460 kts | 116° |
| 2026-04-26 11:45 | 26.32237 | -82.68798 | 28576 ft | 457 kts | 116° |
| 2026-04-26 11:45 | 26.30759 | -82.65672 | 28099 ft | 454 kts | 116° |
| 2026-04-26 11:45 | 26.29267 | -82.62516 | 27642 ft | 450 kts | 116° |
| 2026-04-26 11:45 | 26.27798 | -82.59412 | 27200 ft | 447 kts | 116° |
| 2026-04-26 11:46 | 26.26333 | -82.56319 | 26755 ft | 444 kts | 116° |
| 2026-04-26 11:46 | 26.24891 | -82.53278 | 26300 ft | 441 kts | 116° |
| 2026-04-26 11:46 | 26.23417 | -82.50168 | 25874 ft | 438 kts | 116° |
| 2026-04-26 11:46 | 26.22105 | -82.47405 | 25510 ft | 435 kts | 116° |
| 2026-04-26 11:47 | 26.20669 | -82.44379 | 25090 ft | 433 kts | 116° |
| 2026-04-26 11:47 | 26.19250 | -82.41394 | 24686 ft | 431 kts | 116° |
| 2026-04-26 11:47 | 26.17928 | -82.38613 | 24311 ft | 429 kts | 116° |
| 2026-04-26 11:47 | 26.16530 | -82.35674 | 23958 ft | 426 kts | 116° |
| 2026-04-26 11:48 | 26.15141 | -82.32758 | 23559 ft | 425 kts | 116° |
| 2026-04-26 11:48 | 26.13755 | -82.29849 | 23190 ft | 422 kts | 116° |
| 2026-04-26 11:48 | 26.12367 | -82.26938 | 22858 ft | 419 kts | 116° |
| 2026-04-26 11:48 | 26.11062 | -82.24203 | 22517 ft | 417 kts | 116° |
| 2026-04-26 11:49 | 26.09693 | -82.21335 | 22181 ft | 414 kts | 116° |
| 2026-04-26 11:49 | 26.08332 | -82.18485 | 21864 ft | 411 kts | 116° |
| 2026-04-26 11:49 | 26.06974 | -82.15643 | 21515 ft | 409 kts | 116° |
| 2026-04-26 11:49 | 26.05614 | -82.12801 | 21195 ft | 406 kts | 116° |
| 2026-04-26 11:50 | 26.04266 | -82.09985 | 20873 ft | 404 kts | 116° |
| 2026-04-26 11:50 | 26.02940 | -82.07214 | 20570 ft | 402 kts | 116° |
| 2026-04-26 11:50 | 26.01609 | -82.04437 | 20241 ft | 400 kts | 116° |
| 2026-04-26 11:50 | 26.00275 | -82.01656 | 19950 ft | 398 kts | 116° |
| 2026-04-26 11:51 | 25.98985 | -81.98967 | 19650 ft | 396 kts | 116° |
| 2026-04-26 11:51 | 25.97680 | -81.96249 | 19409 ft | 393 kts | 116° |
| 2026-04-26 11:51 | 25.96361 | -81.93504 | 19124 ft | 391 kts | 116° |
| 2026-04-26 11:51 | 25.95065 | -81.90807 | 18868 ft | 389 kts | 116° |
| 2026-04-26 11:52 | 25.93967 | -81.88524 | 18686 ft | 386 kts | 116° |
| 2026-04-26 11:52 | 25.93120 | -81.86764 | 18666 ft | 380 kts | 116° |
| 2026-04-26 11:52 | 25.91428 | -81.83251 | 18520 ft | 373 kts | 116° |
| 2026-04-26 11:52 | 25.90235 | -81.80779 | 18358 ft | 370 kts | 117° |
| 2026-04-26 11:53 | 25.88760 | -81.78513 | 18257 ft | 366 kts | 134° |
| 2026-04-26 11:53 | 25.86745 | -81.76777 | 18141 ft | 361 kts | 149° |
| 2026-04-26 11:53 | 25.84606 | -81.75342 | 17948 ft | 360 kts | 149° |
| 2026-04-26 11:54 | 25.80488 | -81.72504 | 17605 ft | 358 kts | 148° |
| 2026-04-26 11:54 | 25.78328 | -81.71016 | 17436 ft | 356 kts | 149° |
| 2026-04-26 11:54 | 25.76175 | -81.69534 | 17105 ft | 361 kts | 149° |
| 2026-04-26 11:54 | 25.74006 | -81.68043 | 16745 ft | 366 kts | 149° |
| 2026-04-26 11:55 | 25.71889 | -81.66587 | 16592 ft | 363 kts | 149° |
| 2026-04-26 11:55 | 25.69746 | -81.65114 | 16586 ft | 357 kts | 149° |
| 2026-04-26 11:55 | 25.67578 | -81.63625 | 16517 ft | 353 kts | 149° |
| 2026-04-26 11:55 | 25.65575 | -81.62249 | 16401 ft | 351 kts | 149° |
| 2026-04-26 11:56 | 25.63613 | -81.60903 | 16255 ft | 351 kts | 149° |
| 2026-04-26 11:56 | 25.61498 | -81.59453 | 16114 ft | 351 kts | 149° |
| 2026-04-26 11:56 | 25.59348 | -81.57979 | 15971 ft | 350 kts | 148° |
| 2026-04-26 11:56 | 25.57320 | -81.56590 | 15839 ft | 350 kts | 149° |
| 2026-04-26 11:57 | 25.55658 | -81.55451 | 15727 ft | 350 kts | 148° |
| 2026-04-26 11:57 | 25.53554 | -81.54012 | 15626 ft | 348 kts | 148° |
| 2026-04-26 11:57 | 25.51429 | -81.52786 | 15522 ft | 345 kts | 162° |
| 2026-04-26 11:57 | 25.49031 | -81.52298 | 15389 ft | 339 kts | 182° |
| 2026-04-26 11:58 | 25.46815 | -81.52639 | 15269 ft | 332 kts | 201° |
| 2026-04-26 11:58 | 25.44759 | -81.53510 | 15114 ft | 330 kts | 207° |
| 2026-04-26 11:58 | 25.42785 | -81.54435 | 15035 ft | 328 kts | 207° |
| 2026-04-26 11:58 | 25.40621 | -81.55442 | 14931 ft | 328 kts | 207° |
| 2026-04-26 11:59 | 25.38471 | -81.56441 | 14837 ft | 327 kts | 208° |
| 2026-04-26 11:59 | 25.36629 | -81.57296 | 14770 ft | 326 kts | 207° |
| 2026-04-26 11:59 | 25.34496 | -81.58285 | 14675 ft | 326 kts | 207° |
| 2026-04-26 11:59 | 25.32365 | -81.59274 | 14579 ft | 325 kts | 207° |
| 2026-04-26 12:00 | 25.30258 | -81.60249 | 14494 ft | 325 kts | 207° |
| 2026-04-26 12:00 | 25.28118 | -81.61240 | 14391 ft | 325 kts | 207° |
| 2026-04-26 12:00 | 25.25996 | -81.62222 | 14309 ft | 324 kts | 207° |
| 2026-04-26 12:00 | 25.23857 | -81.63212 | 14242 ft | 323 kts | 207° |
| 2026-04-26 12:01 | 25.21786 | -81.64168 | 14157 ft | 323 kts | 207° |
| 2026-04-26 12:01 | 25.19881 | -81.65050 | 13914 ft | 326 kts | 207° |
| 2026-04-26 12:01 | 25.17737 | -81.66039 | 13465 ft | 325 kts | 207° |
| 2026-04-26 12:01 | 25.15661 | -81.66995 | 13039 ft | 322 kts | 207° |
| 2026-04-26 12:02 | 25.13655 | -81.67919 | 12627 ft | 319 kts | 207° |
| 2026-04-26 12:02 | 25.12503 | -81.68449 | 12392 ft | 317 kts | 207° |
| 2026-04-26 12:02 | 25.09730 | -81.69725 | 11815 ft | 314 kts | 207° |
| 2026-04-26 12:02 | 25.07659 | -81.70679 | 11392 ft | 311 kts | 207° |
| 2026-04-26 12:03 | 25.05631 | -81.71611 | 10966 ft | 309 kts | 207° |
| 2026-04-26 12:03 | 25.03635 | -81.72530 | 10522 ft | 307 kts | 207° |
| 2026-04-26 12:03 | 25.01627 | -81.73453 | 10118 ft | 304 kts | 206° |
| 2026-04-26 12:03 | 24.99671 | -81.74352 | 9714 ft | 301 kts | 206° |
| 2026-04-26 12:04 | 24.97781 | -81.75221 | 9381 ft | 295 kts | 206° |
| 2026-04-26 12:04 | 24.96065 | -81.76008 | 9116 ft | 289 kts | 206° |
| 2026-04-26 12:04 | 24.94212 | -81.76859 | 8790 ft | 285 kts | 206° |
| 2026-04-26 12:04 | 24.92389 | -81.77696 | 8459 ft | 280 kts | 205° |
| 2026-04-26 12:05 | 24.90696 | -81.78472 | 8162 ft | 276 kts | 205° |
| 2026-04-26 12:05 | 24.89087 | -81.79212 | 7876 ft | 272 kts | 205° |
| 2026-04-26 12:05 | 24.87357 | -81.80161 | 7564 ft | 264 kts | 214° |
| 2026-04-26 12:05 | 24.85842 | -81.81242 | 7276 ft | 260 kts | 215° |
| 2026-04-26 12:06 | 24.84277 | -81.82358 | 6964 ft | 257 kts | 215° |
| 2026-04-26 12:06 | 24.82872 | -81.83358 | 6694 ft | 252 kts | 214° |
| 2026-04-26 12:06 | 24.81379 | -81.84420 | 6402 ft | 248 kts | 214° |
| 2026-04-26 12:06 | 24.79937 | -81.85445 | 6127 ft | 243 kts | 214° |
| 2026-04-26 12:07 | 24.78508 | -81.86459 | 5827 ft | 239 kts | 214° |
| 2026-04-26 12:07 | 24.77106 | -81.87453 | 5584 ft | 233 kts | 214° |
| 2026-04-26 12:07 | 24.75716 | -81.88440 | 5292 ft | 230 kts | 214° |
| 2026-04-26 12:07 | 24.74427 | -81.89353 | 5044 ft | 227 kts | 213° |
| 2026-04-26 12:08 | 24.73078 | -81.90310 | 4773 ft | 225 kts | 213° |
| 2026-04-26 12:08 | 24.71866 | -81.91167 | 4532 ft | 222 kts | 213° |
| 2026-04-26 12:08 | 24.70555 | -81.92096 | 4286 ft | 218 kts | 213° |
| 2026-04-26 12:08 | 24.69250 | -81.93020 | 4030 ft | 214 kts | 212° |
| 2026-04-26 12:09 | 24.67967 | -81.93926 | 3775 ft | 211 kts | 212° |
| 2026-04-26 12:09 | 24.66867 | -81.94706 | 3569 ft | 208 kts | 212° |
| 2026-04-26 12:09 | 24.65635 | -81.95577 | 3323 ft | 207 kts | 212° |
| 2026-04-26 12:09 | 24.64470 | -81.96400 | 3065 ft | 185 kts | 211° |
| 2026-04-26 12:10 | 24.63382 | -81.96860 | 2912 ft | 166 kts | 185° |
| 2026-04-26 12:10 | 24.62299 | -81.96882 | 2698 ft | 163 kts | 177° |
| 2026-04-26 12:10 | 24.61161 | -81.96863 | 2501 ft | 160 kts | 178° |
| 2026-04-26 12:10 | 24.60006 | -81.96847 | 2285 ft | 160 kts | 178° |
| 2026-04-26 12:11 | 24.58898 | -81.96833 | 2110 ft | 146 kts | 178° |
| 2026-04-26 12:11 | 24.57961 | -81.96822 | 2003 ft | 140 kts | 178° |
| 2026-04-26 12:11 | 24.56978 | -81.96809 | 1737 ft | 135 kts | 178° |
| 2026-04-26 12:11 | 24.56034 | -81.96678 | 1561 ft | 133 kts | 155° |
| 2026-04-26 12:12 | 24.55452 | -81.95927 | 1461 ft | 132 kts | 105° |
| 2026-04-26 12:12 | 24.55394 | -81.94923 | 1505 ft | 134 kts | 90° |
| 2026-04-26 12:12 | 24.55422 | -81.93887 | 1490 ft | 134 kts | 91° |
| 2026-04-26 12:12 | 24.55433 | -81.93189 | 1479 ft | 133 kts | 91° |
| 2026-04-26 12:13 | 24.55449 | -81.91801 | 1470 ft | 133 kts | 91° |
| 2026-04-26 12:13 | 24.55461 | -81.90771 | 1468 ft | 133 kts | 92° |
| 2026-04-26 12:13 | 24.55472 | -81.89729 | 1466 ft | 133 kts | 91° |
| 2026-04-26 12:13 | 24.55483 | -81.88737 | 1470 ft | 133 kts | 91° |
| 2026-04-26 12:14 | 24.55493 | -81.87691 | 1468 ft | 132 kts | 91° |
| 2026-04-26 12:14 | 24.55503 | -81.86768 | 1463 ft | 133 kts | 91° |
| 2026-04-26 12:14 | 24.55513 | -81.85776 | 1469 ft | 133 kts | 91° |
| 2026-04-26 12:14 | 24.55523 | -81.84734 | 1397 ft | 135 kts | 91° |
| 2026-04-26 12:15 | 24.55534 | -81.83733 | 1207 ft | 131 kts | 91° |
| 2026-04-26 12:15 | 24.55544 | -81.82766 | 1048 ft | 133 kts | 91° |
| 2026-04-26 12:15 | 24.55554 | -81.81741 | 886 ft | 132 kts | 91° |
| 2026-04-26 12:15 | 24.55564 | -81.80719 | 706 ft | 132 kts | 91° |
| 2026-04-26 12:16 | 24.55573 | -81.79707 | 523 ft | 131 kts | 91° |
| 2026-04-26 12:16 | 24.55583 | -81.78696 | 365 ft | 131 kts | 91° |
| 2026-04-26 12:16 | 24.55588 | -81.77685 | 210 ft | 133 kts | 93° |
| 2026-04-26 12:16 | 24.55600 | -81.76725 | 24 ft | 118 kts | 91° |
| 2026-04-26 12:17 | 24.55608 | -81.76001 | 8 ft | 60 kts | 90° |
| 2026-04-26 12:17 | 24.55613 | -81.75616 | 8 ft | 12 kts | 94° |
| 2026-04-26 12:17 | 24.55544 | -81.75588 | 8 ft | 12 kts | 152° |
| 2026-04-26 12:17 | 24.55534 | -81.75476 | 8 ft | 16 kts | 88° |
| 2026-04-26 12:18 | 24.55501 | -81.75381 | 8 ft | 12 kts | 180° |
| 2026-04-26 12:18 | 24.55472 | -81.75396 | 8 ft | 7 kts | 253° |
| 2026-04-26 12:18 | 24.55469 | -81.75412 | 8 ft | 3 kts | 265° |
| 2026-04-26 12:18 | 24.55476 | -81.75427 | 7 ft | 0 kts | 338° |